createdAt,value
2018-09-17T00:01:58.995Z,100836.73
2018-09-17T00:04:27.059Z,100829.48
2018-09-17T00:06:55.118Z,100831.59
2018-09-17T00:09:23.231Z,100828.83
2018-09-17T00:11:51.296Z,100826.34
2018-09-17T00:14:19.372Z,100824.88
2018-09-17T00:16:47.440Z,100823.77
2018-09-17T00:19:15.516Z,100824.72
2018-09-17T00:21:43.568Z,100825.07
2018-09-17T00:24:11.636Z,100827.31
2018-09-17T00:26:39.692Z,100836.39
2018-09-17T00:29:07.747Z,100836.81
2018-09-17T00:31:35.804Z,100833.19
2018-09-17T00:34:03.870Z,100831.71
2018-09-17T00:36:31.929Z,100828.14
2018-09-17T00:38:59.980Z,100822.73
2018-09-17T00:41:28.039Z,100820.48
2018-09-17T00:43:56.232Z,100823.02
2018-09-17T00:46:24.315Z,100816.00
2018-09-17T00:48:52.359Z,100818.67
2018-09-17T00:51:20.814Z,100817.86
2018-09-17T00:53:48.871Z,100818.23
2018-09-17T00:56:16.930Z,100831.44
2018-09-17T00:58:44.972Z,100829.95
2018-09-17T01:01:13.044Z,100837.25
2018-09-17T01:03:41.233Z,100836.77
2018-09-17T01:06:09.286Z,100837.95
2018-09-17T01:08:37.324Z,100831.65
2018-09-17T01:11:05.410Z,100832.90
2018-09-17T01:13:33.462Z,100841.02
2018-09-17T01:16:01.504Z,100835.73
2018-09-17T01:18:29.597Z,100833.91
2018-09-17T01:20:57.675Z,100831.27
2018-09-17T01:23:25.731Z,100833.94
2018-09-17T01:25:53.793Z,100837.84
2018-09-17T01:28:21.861Z,100834.51
2018-09-17T01:30:50.081Z,100832.11
2018-09-17T01:33:18.127Z,100832.31
2018-09-17T01:35:46.192Z,100834.17
2018-09-17T01:38:14.248Z,100834.84
2018-09-17T01:40:42.341Z,100836.23
2018-09-17T01:43:10.499Z,100826.55
2018-09-17T01:45:38.575Z,100837.37
2018-09-17T01:48:06.630Z,100837.37
2018-09-17T01:50:34.694Z,100828.41
2018-09-17T01:53:02.752Z,100833.94
2018-09-17T01:55:30.865Z,100824.39
2018-09-17T01:57:59.048Z,100816.23
2018-09-17T02:00:27.107Z,100812.08
2018-09-17T02:02:55.170Z,100813.46
2018-09-17T02:05:23.236Z,100813.46
2018-09-17T02:07:51.299Z,100815.75
2018-09-17T02:10:19.376Z,100818.31
2018-09-17T02:12:47.447Z,100818.31
2018-09-17T02:15:15.512Z,100818.08
2018-09-17T02:17:43.583Z,100810.36
2018-09-17T02:20:11.665Z,100808.97
2018-09-17T02:22:39.720Z,100805.91
2018-09-17T02:25:07.796Z,100804.52
2018-09-17T02:27:35.880Z,100803.84
2018-09-17T02:30:03.955Z,100803.03
2018-09-17T02:32:32.047Z,100803.84
2018-09-17T02:35:00.123Z,100802.90
2018-09-17T02:37:29.229Z,100799.93
2018-09-17T02:39:57.351Z,100808.43
2018-09-17T02:42:25.436Z,100819.72
2018-09-17T02:44:53.508Z,100819.48
2018-09-17T02:47:21.580Z,100819.05
2018-09-17T02:49:49.648Z,100814.90
2018-09-17T02:52:17.736Z,100820.19
2018-09-17T02:54:45.787Z,100821.13
2018-09-17T02:57:13.840Z,100821.13
2018-09-17T02:59:41.912Z,100820.22
2018-09-17T03:02:09.985Z,100817.58
2018-09-17T03:04:38.107Z,100819.33
2018-09-17T03:07:06.155Z,100811.50
2018-09-17T03:09:34.225Z,100811.97
2018-09-17T03:12:02.326Z,100809.00
2018-09-17T03:14:30.798Z,100813.14
2018-09-17T03:17:12.511Z,100810.59
2018-09-17T03:19:46.978Z,100823.83
2018-09-17T03:22:15.604Z,100833.08
2018-09-17T03:24:43.670Z,100833.55
2018-09-17T03:27:11.764Z,100833.91
2018-09-17T03:29:39.876Z,100834.35
2018-09-17T03:32:07.949Z,100839.88
2018-09-17T03:34:36.012Z,100837.83
2018-09-17T03:37:04.107Z,100847.29
2018-09-17T03:39:32.177Z,100850.51
2018-09-17T03:42:00.298Z,100846.13
2018-09-17T03:44:28.404Z,100842.23
2018-09-17T03:46:56.543Z,100843.05
2018-09-17T03:49:24.729Z,100839.23
2018-09-17T03:51:53.130Z,100839.02
2018-09-17T03:54:21.184Z,100839.47
2018-09-17T03:56:49.270Z,100830.14
2018-09-17T03:59:17.323Z,100839.23
2018-09-17T04:01:45.435Z,100841.09
2018-09-17T04:04:13.520Z,100833.25
2018-09-17T04:06:41.623Z,100828.17
2018-09-17T04:09:09.801Z,100832.55
2018-09-17T04:11:37.851Z,100828.41
2018-09-17T04:14:07.379Z,100821.76
2018-09-17T04:16:35.479Z,100823.82
2018-09-17T04:19:03.551Z,100821.74
2018-09-17T04:21:31.640Z,100827.95
2018-09-17T04:23:59.742Z,100824.25
2018-09-17T04:26:27.876Z,100821.94
2018-09-17T04:28:55.955Z,100821.80
2018-09-17T04:31:24.112Z,100814.77
2018-09-17T04:33:52.144Z,100814.77
2018-09-17T04:36:20.232Z,100817.77
2018-09-17T04:38:48.363Z,100823.17
2018-09-17T04:41:16.446Z,100821.33
2018-09-17T04:43:44.563Z,100812.47
2018-09-17T04:46:12.664Z,100822.58
2018-09-17T04:48:40.764Z,100818.30
2018-09-17T04:51:08.856Z,100817.16
2018-09-17T04:53:36.964Z,100823.27
2018-09-17T04:56:05.104Z,100828.55
2018-09-17T04:58:33.184Z,100833.30
2018-09-17T05:01:01.315Z,100842.29
2018-09-17T05:03:29.408Z,100845.07
2018-09-17T05:05:57.472Z,100849.79
2018-09-17T05:08:25.544Z,100845.64
2018-09-17T05:10:53.692Z,100843.78
2018-09-17T05:13:22.160Z,100857.59
2018-09-17T05:15:50.081Z,100855.76
2018-09-17T05:18:18.184Z,100858.50
2018-09-17T05:20:46.415Z,100853.66
2018-09-17T05:23:14.416Z,100849.48
2018-09-17T05:25:42.575Z,100856.00
2018-09-17T05:28:10.659Z,100856.32
2018-09-17T05:30:38.724Z,100859.81
2018-09-17T05:33:06.891Z,100856.67
2018-09-17T05:35:34.953Z,100860.36
2018-09-17T05:38:03.039Z,100860.49
2018-09-17T05:40:31.196Z,100856.12
2018-09-17T05:42:59.332Z,100857.80
2018-09-17T05:45:27.430Z,100856.81
2018-09-17T05:47:55.638Z,100855.83
2018-09-17T05:50:23.724Z,100859.45
2018-09-17T05:52:51.893Z,100865.09
2018-09-17T05:55:19.970Z,100875.00
2018-09-17T05:57:48.070Z,100878.18
2018-09-17T06:00:16.180Z,100884.67
2018-09-17T06:02:44.316Z,100845.85
2018-09-17T06:05:12.818Z,100872.55
2018-09-17T06:07:40.940Z,100875.53
2018-09-17T06:10:14.115Z,100864.25
2018-09-17T06:12:42.889Z,100868.81
2018-09-17T06:15:10.987Z,100869.15
2018-09-17T06:17:39.100Z,100878.30
2018-09-17T06:20:07.271Z,100873.18
2018-09-17T06:22:35.396Z,100872.18
2018-09-17T06:25:03.840Z,100869.70
2018-09-17T06:27:31.943Z,100880.22
2018-09-17T06:30:00.146Z,100876.55
2018-09-17T06:32:28.212Z,100877.80
2018-09-17T06:34:56.755Z,100879.41
2018-09-17T06:37:24.929Z,100880.72
2018-09-17T06:39:53.053Z,100880.16
2018-09-17T06:42:21.160Z,100883.69
2018-09-17T06:44:49.279Z,100887.25
2018-09-17T06:47:17.458Z,100882.17
2018-09-17T06:49:45.576Z,100889.27
2018-09-17T06:52:13.651Z,100892.68
2018-09-17T06:54:42.209Z,100900.68
2018-09-17T06:57:10.389Z,100902.59
2018-09-17T06:59:38.548Z,100899.56
2018-09-17T07:02:06.983Z,100902.02
2018-09-17T07:04:35.093Z,100908.52
2018-09-17T07:07:03.199Z,100907.21
2018-09-17T07:09:31.296Z,100909.30
2018-09-17T07:11:59.415Z,100905.42
2018-09-17T07:14:27.627Z,100905.75
2018-09-17T07:16:55.721Z,100911.70
2018-09-17T07:19:23.885Z,100901.93
2018-09-17T07:21:52.013Z,100892.73
2018-09-17T07:24:20.329Z,100890.77
2018-09-17T07:26:48.412Z,100886.33
2018-09-17T07:29:16.519Z,100894.95
2018-09-17T07:31:44.618Z,100889.80
2018-09-17T07:34:12.728Z,100876.61
2018-09-17T07:36:40.859Z,100879.80
2018-09-17T07:39:10.616Z,100879.47
2018-09-17T07:41:38.832Z,100882.06
2018-09-17T07:44:06.938Z,100882.56
2018-09-17T07:46:35.231Z,100880.47
2018-09-17T07:49:03.464Z,100876.45
2018-09-17T07:51:31.576Z,100876.06
2018-09-17T07:54:06.098Z,100880.98
2018-09-17T07:56:34.239Z,100877.87
2018-09-17T07:59:02.427Z,100881.58
2018-09-17T08:01:30.635Z,100872.69
2018-09-17T08:03:58.727Z,100870.05
2018-09-17T08:06:26.858Z,100869.80
2018-09-17T08:08:54.965Z,100875.76
2018-09-17T08:11:23.098Z,100874.94
2018-09-17T08:13:51.182Z,100870.67
2018-09-17T08:16:19.292Z,100870.22
2018-09-17T08:18:47.391Z,100874.37
2018-09-17T08:21:15.550Z,100872.97
2018-09-17T08:23:43.867Z,100868.69
2018-09-17T08:26:11.952Z,100868.74
2018-09-17T08:28:40.095Z,100863.42
2018-09-17T08:31:08.377Z,100866.39
2018-09-17T08:33:37.006Z,100863.69
2018-09-17T08:36:10.349Z,100839.01
2018-09-17T08:38:38.438Z,100857.31
2018-09-17T08:41:06.597Z,100853.56
2018-09-17T08:43:35.390Z,100847.16
2018-09-17T08:46:03.481Z,100841.11
2018-09-17T08:48:31.560Z,100846.45
2018-09-17T08:50:59.752Z,100834.73
2018-09-17T08:53:27.804Z,100838.42
2018-09-17T08:56:00.602Z,100845.92
2018-09-17T08:58:39.380Z,100841.78
2018-09-17T09:02:12.368Z,100843.56
2018-09-17T09:04:47.237Z,100856.92
2018-09-17T09:07:22.382Z,100860.23
2018-09-17T09:09:51.686Z,100854.28
2018-09-17T09:12:25.407Z,100857.16
2018-09-17T09:15:02.639Z,100859.67
2018-09-17T09:17:30.779Z,100863.75
2018-09-17T09:19:58.869Z,100865.86
2018-09-17T09:22:26.976Z,100864.30
2018-09-17T09:24:55.060Z,100862.84
2018-09-17T09:27:23.164Z,100862.64
2018-09-17T09:29:51.281Z,100864.05
2018-09-17T09:32:19.424Z,100854.52
2018-09-17T09:34:50.643Z,100855.27
2018-09-17T09:37:18.741Z,100853.52
2018-09-17T09:39:50.258Z,100849.00
2018-09-17T09:42:19.449Z,100849.95
2018-09-17T09:44:47.607Z,100856.65
2018-09-17T09:47:15.779Z,100850.21
2018-09-17T09:49:44.063Z,100851.63
2018-09-17T09:52:12.256Z,100851.01
2018-09-17T09:54:40.491Z,100848.98
2018-09-17T09:57:08.614Z,100845.64
2018-09-17T09:59:38.364Z,100845.72
2018-09-17T10:02:12.502Z,100840.97
2018-09-17T10:04:40.914Z,100837.92
2018-09-17T10:07:09.145Z,100846.38
2018-09-17T10:09:42.642Z,100844.25
2018-09-17T10:12:19.543Z,100845.33
2018-09-17T10:14:52.930Z,100843.31
2018-09-17T10:17:26.360Z,100836.53
2018-09-17T10:19:54.518Z,100837.79
2018-09-17T10:22:22.685Z,100838.48
2018-09-17T10:24:50.835Z,100838.48
2018-09-17T10:27:19.273Z,100835.16
2018-09-17T10:29:47.450Z,100830.55
2018-09-17T10:32:15.690Z,100827.66
2018-09-17T10:34:43.790Z,100827.92
2018-09-17T10:37:12.161Z,100827.23
2018-09-17T10:39:40.365Z,100825.64
2018-09-17T10:42:08.509Z,100813.55
2018-09-17T10:44:37.169Z,100816.30
2018-09-17T10:47:05.360Z,100811.19
2018-09-17T10:49:33.436Z,100814.34
2018-09-17T10:52:01.508Z,100812.62
2018-09-17T10:57:11.522Z,100806.44
2018-09-17T10:59:39.624Z,100809.64
2018-09-17T11:02:07.874Z,100806.27
2018-09-17T11:04:36.219Z,100807.67
2018-09-17T11:07:04.651Z,100804.05
2018-09-17T11:09:32.820Z,100796.75
2018-09-17T11:12:01.000Z,100792.77
2018-09-17T11:14:29.186Z,100797.37
2018-09-17T11:16:57.462Z,100795.59
2018-09-17T11:19:25.625Z,100791.28
2018-09-17T11:21:53.752Z,100785.30
2018-09-17T11:24:22.015Z,100785.30
2018-09-17T11:26:50.229Z,100787.75
2018-09-17T11:29:21.725Z,100781.15
2018-09-17T11:31:50.508Z,100771.88
2018-09-17T11:34:18.641Z,100782.11
2018-09-17T11:39:28.667Z,100777.45
2018-09-17T11:41:56.810Z,100778.52
2018-09-17T11:44:25.005Z,100776.83
2018-09-17T11:46:53.094Z,100776.98
2018-09-17T11:49:21.228Z,100779.80
2018-09-17T11:51:49.373Z,100770.12
2018-09-17T11:54:17.464Z,100770.28
2018-09-17T11:56:45.560Z,100770.27
2018-09-17T11:59:13.696Z,100760.57
2018-09-17T12:01:47.248Z,100758.34
2018-09-17T12:04:16.935Z,100762.39
2018-09-17T12:06:50.304Z,100754.34
2018-09-17T12:09:18.409Z,100753.09
2018-09-17T12:11:46.558Z,100745.23
2018-09-17T12:14:14.724Z,100745.94
2018-09-17T12:16:42.847Z,100743.81
2018-09-17T12:19:10.959Z,100747.87
2018-09-17T12:21:39.168Z,100743.56
2018-09-17T12:24:07.270Z,100731.81
2018-09-17T12:26:35.390Z,100731.81
2018-09-17T12:29:03.476Z,100727.94
2018-09-17T12:31:31.599Z,100728.33
2018-09-17T12:33:59.767Z,100715.70
2018-09-17T12:36:27.892Z,100714.70
2018-09-17T12:39:01.842Z,100712.91
2018-09-17T12:41:31.789Z,100717.38
2018-09-17T12:44:01.181Z,100712.14
2018-09-17T12:46:29.283Z,100715.12
2018-09-17T12:48:57.432Z,100716.53
2018-09-17T12:51:25.560Z,100715.99
2018-09-17T12:53:53.829Z,100714.73
2018-09-17T12:56:22.116Z,100713.55
2018-09-17T12:58:53.620Z,100705.52
2018-09-17T13:01:21.752Z,100700.84
2018-09-17T13:03:49.867Z,100695.00
2018-09-17T13:06:18.290Z,100698.63
2018-09-17T13:08:46.389Z,100691.45
2018-09-17T13:11:14.533Z,100687.27
2018-09-17T13:13:42.618Z,100686.80
2018-09-17T13:16:11.440Z,100679.25
2018-09-17T13:18:39.534Z,100680.53
2018-09-17T13:21:07.763Z,100677.16
2018-09-17T13:23:35.896Z,100677.93
2018-09-17T13:26:05.051Z,100674.37
2018-09-17T13:28:35.745Z,100672.84
2018-09-17T13:31:04.446Z,100674.26
2018-09-17T13:33:32.740Z,100667.42
2018-09-17T13:36:04.198Z,100663.98
2018-09-17T13:38:33.222Z,100659.91
2018-09-17T13:41:01.540Z,100656.87
2018-09-17T13:43:29.672Z,100653.58
2018-09-17T13:46:00.507Z,100653.06
2018-09-17T13:48:32.915Z,100654.98
2018-09-17T13:51:01.520Z,100654.16
2018-09-17T13:53:29.933Z,100648.36
2018-09-17T13:55:58.657Z,100655.74
2018-09-17T13:58:28.746Z,100651.03
2018-09-17T14:00:56.876Z,100643.70
2018-09-17T14:03:24.997Z,100649.18
2018-09-17T14:05:55.126Z,100651.43
2018-09-17T14:08:23.268Z,100645.95
2018-09-17T14:10:52.112Z,100642.03
2018-09-17T14:13:21.655Z,100637.47
2018-09-17T14:15:55.268Z,100638.09
2018-09-17T14:18:27.794Z,100637.64
2018-09-17T14:20:55.906Z,100634.82
2018-09-17T14:23:24.027Z,100641.09
2018-09-17T14:25:53.475Z,100633.73
2018-09-17T14:28:22.659Z,100627.90
2018-09-17T14:30:52.545Z,100617.06
2018-09-17T14:33:28.145Z,100620.69
2018-09-17T14:35:56.303Z,100619.59
2018-09-17T14:38:25.003Z,100616.15
2018-09-17T14:40:53.432Z,100622.59
2018-09-17T14:43:21.560Z,100613.31
2018-09-17T14:45:49.867Z,100605.27
2018-09-17T14:48:18.192Z,100604.04
2018-09-17T14:50:46.301Z,100596.80
2018-09-17T14:53:14.429Z,100590.81
2018-09-17T14:55:42.580Z,100592.96
2018-09-17T14:58:11.157Z,100592.64
2018-09-17T15:00:39.248Z,100589.63
2018-09-17T15:03:07.443Z,100590.90
2018-09-17T15:05:35.585Z,100586.77
2018-09-17T15:08:03.830Z,100581.41
2018-09-17T15:10:32.031Z,100576.66
2018-09-17T15:13:00.061Z,100578.16
2018-09-17T15:15:28.576Z,100578.27
2018-09-17T15:17:56.908Z,100583.31
2018-09-17T15:20:25.217Z,100582.19
2018-09-17T15:22:53.264Z,100582.41
2018-09-17T15:25:21.385Z,100583.17
2018-09-17T15:27:49.683Z,100585.13
2018-09-17T15:30:17.795Z,100576.00
2018-09-17T15:32:45.926Z,100576.91
2018-09-17T15:35:14.084Z,100566.80
2018-09-17T15:37:42.319Z,100570.34
2018-09-17T15:40:10.726Z,100566.84
2018-09-17T15:42:38.945Z,100563.35
2018-09-17T15:45:07.068Z,100553.39
2018-09-17T15:47:35.179Z,100553.22
2018-09-17T15:50:03.376Z,100548.31
2018-09-17T15:52:31.569Z,100549.41
2018-09-17T15:54:59.772Z,100546.22
2018-09-17T15:57:27.888Z,100551.33
2018-09-17T15:59:56.025Z,100545.17
2018-09-17T16:02:24.220Z,100543.25
2018-09-17T16:04:52.397Z,100536.30
2018-09-17T16:07:20.634Z,100544.00
2018-09-17T16:09:48.833Z,100535.34
2018-09-17T16:12:17.064Z,100534.84
2018-09-17T16:14:45.334Z,100532.41
2018-09-17T16:17:13.536Z,100541.59
2018-09-17T16:19:41.689Z,100536.84
2018-09-17T16:22:09.799Z,100534.77
2018-09-17T16:24:37.934Z,100534.44
2018-09-17T16:27:06.020Z,100533.73
2018-09-17T16:29:34.240Z,100533.05
2018-09-17T16:32:02.358Z,100529.70
2018-09-17T16:34:30.451Z,100527.78
2018-09-17T16:36:58.536Z,100534.17
2018-09-17T16:39:26.658Z,100530.83
2018-09-17T16:41:54.827Z,100525.01
2018-09-17T16:44:22.916Z,100533.14
2018-09-17T16:46:51.230Z,100526.62
2018-09-17T16:49:19.369Z,100522.66
2018-09-17T16:51:47.624Z,100520.89
2018-09-17T16:54:15.761Z,100519.91
2018-09-17T16:56:43.950Z,100517.83
2018-09-17T16:59:12.063Z,100520.47
2018-09-17T17:01:40.157Z,100525.44
2018-09-17T17:04:08.401Z,100520.17
2018-09-17T17:06:36.497Z,100522.29
2018-09-17T17:09:07.054Z,100519.84
2018-09-17T17:11:35.147Z,100524.44
2018-09-17T17:14:03.269Z,100521.65
2018-09-17T17:16:31.523Z,100526.52
2018-09-17T17:18:59.918Z,100527.92
2018-09-17T17:21:28.107Z,100529.41
2018-09-17T17:23:56.303Z,100531.11
2018-09-17T17:26:24.432Z,100531.02
2018-09-17T17:28:52.593Z,100536.21
2018-09-17T17:31:20.716Z,100534.97
2018-09-17T17:33:49.015Z,100530.70
2018-09-17T17:36:17.132Z,100534.27
2018-09-17T17:38:45.218Z,100534.41
2018-09-17T17:41:13.324Z,100533.77
2018-09-17T17:43:41.488Z,100533.42
2018-09-17T17:46:09.716Z,100529.28
2018-09-17T17:48:37.732Z,100532.57
2018-09-17T17:51:06.337Z,100529.50
2018-09-17T17:53:34.545Z,100527.12
2018-09-17T17:56:02.647Z,100518.47
2018-09-17T17:58:30.755Z,100526.78
2018-09-17T18:00:58.994Z,100523.14
2018-09-17T18:03:27.119Z,100523.14
2018-09-17T18:05:55.232Z,100525.30
2018-09-17T18:08:23.354Z,100535.11
2018-09-17T18:10:51.770Z,100528.87
2018-09-17T18:13:19.861Z,100532.61
2018-09-17T18:15:48.168Z,100528.33
2018-09-17T18:18:16.309Z,100525.22
2018-09-17T18:20:44.463Z,100523.37
2018-09-17T18:23:12.595Z,100524.66
2018-09-17T18:25:40.755Z,100525.41
2018-09-17T18:28:08.862Z,100526.55
2018-09-17T18:30:36.984Z,100525.09
2018-09-17T18:33:05.133Z,100526.03
2018-09-17T18:35:33.279Z,100520.09
2018-09-17T18:38:01.522Z,100525.59
2018-09-17T18:40:29.638Z,100516.48
2018-09-17T18:42:57.866Z,100524.20
2018-09-17T18:45:25.996Z,100521.51
2018-09-17T18:47:54.834Z,100518.97
2018-09-17T18:50:23.085Z,100523.81
2018-09-17T18:52:51.172Z,100521.09
2018-09-17T18:55:19.277Z,100523.11
2018-09-17T18:57:47.381Z,100524.76
2018-09-17T19:00:15.535Z,100527.60
2018-09-17T19:02:43.606Z,100530.83
2018-09-17T19:05:11.734Z,100527.75
2018-09-17T19:07:39.801Z,100525.59
2018-09-17T19:10:07.928Z,100524.05
2018-09-17T19:12:36.078Z,100519.72
2018-09-17T19:15:09.583Z,100527.95
2018-09-17T19:17:42.077Z,100525.79
2018-09-17T19:20:11.485Z,100528.05
2018-09-17T19:22:44.850Z,100530.69
2018-09-17T19:25:14.972Z,100532.06
2018-09-17T19:27:48.346Z,100526.70
2018-09-17T19:30:17.011Z,100531.70
2018-09-17T19:32:45.385Z,100523.96
2018-09-17T19:35:13.745Z,100523.79
2018-09-17T19:37:47.233Z,100523.41
2018-09-17T19:40:17.786Z,100524.81
2018-09-17T19:42:47.074Z,100519.05
2018-09-17T19:45:20.676Z,100520.23
2018-09-17T19:47:49.528Z,100523.23
2018-09-17T19:50:22.920Z,100518.66
2018-09-17T19:52:50.939Z,100519.88
2018-09-17T19:55:19.074Z,100518.09
2018-09-17T19:57:52.642Z,100515.89
2018-09-17T20:00:21.075Z,100515.45
2018-09-17T20:02:49.148Z,100516.47
2018-09-17T20:05:22.643Z,100511.69
2018-09-17T20:07:50.710Z,100513.86
2018-09-17T20:10:18.866Z,100507.50
2018-09-17T20:12:46.915Z,100509.09
2018-09-17T20:15:15.016Z,100511.66
2018-09-17T20:17:43.128Z,100507.66
2018-09-17T20:20:11.291Z,100510.05
2018-09-17T20:22:39.538Z,100512.03
2018-09-17T20:25:08.074Z,100516.81
2018-09-17T20:27:36.549Z,100513.00
2018-09-17T20:30:04.879Z,100511.20
2018-09-17T20:32:33.068Z,100509.61
2018-09-17T20:35:01.181Z,100502.04
2018-09-17T20:37:29.338Z,100500.25
2018-09-17T20:39:57.501Z,100492.47
2018-09-17T20:42:25.676Z,100490.47
2018-09-17T20:44:53.836Z,100499.83
2018-09-17T20:47:22.105Z,100492.44
2018-09-17T20:49:50.310Z,100486.48
2018-09-17T20:52:18.420Z,100482.88
2018-09-17T20:54:46.593Z,100477.28
2018-09-17T20:57:15.000Z,100485.63
2018-09-17T20:59:46.984Z,100483.41
2018-09-17T21:02:15.138Z,100482.60
2018-09-17T21:04:43.318Z,100482.75
2018-09-17T21:07:12.563Z,100479.93
2018-09-17T21:09:40.841Z,100479.94
2018-09-17T21:12:09.066Z,100479.70
2018-09-17T21:14:37.168Z,100480.67
2018-09-17T21:17:06.105Z,100477.69
2018-09-17T21:19:34.340Z,100473.86
2018-09-17T21:22:02.449Z,100473.83
2018-09-17T21:24:30.542Z,100473.03
2018-09-17T21:26:58.637Z,100475.80
2018-09-17T21:29:26.696Z,100475.18
2018-09-17T21:31:54.786Z,100478.95
2018-09-17T21:34:22.921Z,100473.58
2018-09-17T21:36:51.044Z,100470.95
2018-09-17T21:39:19.077Z,100472.96
2018-09-17T21:41:47.189Z,100470.34
2018-09-17T21:44:15.267Z,100464.16
2018-09-17T21:46:43.357Z,100468.95
2018-09-17T21:49:11.486Z,100459.41
2018-09-17T21:51:39.566Z,100464.34
2018-09-17T21:54:07.673Z,100463.38
2018-09-17T21:56:35.764Z,100458.22
2018-09-17T21:59:03.846Z,100463.38
2018-09-17T22:01:31.936Z,100460.81
2018-09-17T22:04:00.012Z,100458.25
2018-09-17T22:06:28.120Z,100456.64
2018-09-17T22:08:56.193Z,100458.03
2018-09-17T22:11:24.267Z,100460.01
2018-09-17T22:13:52.369Z,100457.42
2018-09-17T22:16:20.452Z,100458.81
2018-09-17T22:18:48.544Z,100452.66
2018-09-17T22:21:16.656Z,100451.86
2018-09-17T22:23:44.728Z,100453.25
2018-09-17T22:26:12.845Z,100451.05
2018-09-17T22:28:40.931Z,100454.42
2018-09-17T22:31:09.021Z,100447.47
2018-09-17T22:33:37.099Z,100444.10
2018-09-17T22:36:05.224Z,100433.94
2018-09-17T22:38:33.305Z,100435.73
2018-09-17T22:41:01.376Z,100434.34
2018-09-17T22:43:29.459Z,100430.97
2018-09-17T22:45:57.532Z,100432.95
2018-09-17T22:48:25.617Z,100433.91
2018-09-17T22:50:53.688Z,100438.27
2018-09-17T22:53:21.787Z,100430.70
2018-09-17T22:55:49.915Z,100431.10
2018-09-17T22:58:17.993Z,100428.84
2018-09-17T23:00:46.099Z,100430.64
2018-09-17T23:03:14.195Z,100423.87
2018-09-17T23:05:42.452Z,100430.98
2018-09-17T23:08:10.571Z,100432.78
2018-09-17T23:10:38.628Z,100431.17
2018-09-17T23:13:06.691Z,100432.16
2018-09-17T23:15:34.818Z,100426.78
2018-09-17T23:18:02.891Z,100427.95
2018-09-17T23:20:30.978Z,100422.61
2018-09-17T23:22:59.072Z,100421.00
2018-09-17T23:25:27.166Z,100420.98
2018-09-17T23:27:55.271Z,100415.81
2018-09-17T23:30:23.406Z,100422.55
2018-09-17T23:32:52.509Z,100416.00
2018-09-17T23:35:21.444Z,100415.20
2018-09-17T23:37:49.519Z,100412.82
2018-09-17T23:40:17.604Z,100412.02
2018-09-17T23:42:45.726Z,100408.03
2018-09-17T23:45:13.800Z,100405.07
2018-09-17T23:47:41.881Z,100401.67
2018-09-17T23:50:09.980Z,100401.48
2018-09-17T23:52:38.048Z,100395.49
2018-09-17T23:55:06.479Z,100397.06
2018-09-17T23:57:34.544Z,100398.42
